createdAt,value
2018-11-10T00:01:25.465Z,28.90
2018-11-10T00:03:59.890Z,29.03
2018-11-10T00:06:33.308Z,28.97
2018-11-10T00:09:04.503Z,29.03
2018-11-10T00:11:50.091Z,29.07
2018-11-10T00:17:06.809Z,30.23
2018-11-10T00:19:42.929Z,28.63
2018-11-10T00:22:18.270Z,29.23
2018-11-10T00:24:49.700Z,29.67
2018-11-10T00:27:34.905Z,28.53
2018-11-10T00:30:09.769Z,28.73
2018-11-10T00:32:43.067Z,28.77
2018-11-10T00:35:13.310Z,27.27
2018-11-10T00:37:48.105Z,29.23
2018-11-10T00:43:04.437Z,31.37
2018-11-10T00:45:52.037Z,28.77
2018-11-10T00:48:22.674Z,28.40
2018-11-10T00:50:54.511Z,28.30
2018-11-10T00:53:25.402Z,28.43
2018-11-10T00:55:58.981Z,34.00
2018-11-10T00:58:28.884Z,30.37
2018-11-10T01:00:59.422Z,29.50
2018-11-10T01:03:30.637Z,28.73
2018-11-10T01:06:00.276Z,26.83
2018-11-10T01:08:37.565Z,28.00
2018-11-10T01:11:07.339Z,27.73
2018-11-10T01:13:38.179Z,28.20
2018-11-10T01:16:08.074Z,26.63
2018-11-10T01:18:37.864Z,26.70
2018-11-10T01:21:08.291Z,25.90
2018-11-10T01:23:49.751Z,26.13
2018-11-10T01:26:23.861Z,27.30
2018-11-10T01:29:01.147Z,26.27
2018-11-10T01:31:32.755Z,26.73
2018-11-10T01:34:29.521Z,25.00
2018-11-10T01:37:02.299Z,23.97
2018-11-10T01:39:33.779Z,25.53
2018-11-10T01:42:08.979Z,27.77
2018-11-10T01:44:39.398Z,26.37
2018-11-10T01:47:20.317Z,26.77
2018-11-10T01:49:59.225Z,25.43
2018-11-10T01:55:43.612Z,25.47
2018-11-10T01:58:15.085Z,27.10
2018-11-10T02:00:44.858Z,25.13
2018-11-10T02:16:34.884Z,24.83
2018-11-10T02:19:08.752Z,29.83
2018-11-10T02:21:42.146Z,25.03
2018-11-10T02:24:12.614Z,24.77
2018-11-10T02:26:43.229Z,25.20
2018-11-10T02:29:15.768Z,25.33
2018-11-10T02:31:49.582Z,24.97
2018-11-10T02:34:20.338Z,25.30
2018-11-10T02:36:50.141Z,26.00
2018-11-10T02:39:19.799Z,24.60
2018-11-10T02:41:50.946Z,23.83
2018-11-10T02:44:21.108Z,23.57
2018-11-10T02:46:52.749Z,24.13
2018-11-10T02:49:25.501Z,24.43
2018-11-10T02:51:56.299Z,23.13
2018-11-10T02:54:27.130Z,24.43
2018-11-10T02:57:10.706Z,24.13
2018-11-10T03:00:08.366Z,24.23
2018-11-10T03:02:37.977Z,23.93
2018-11-10T03:05:09.996Z,24.97
2018-11-10T03:07:41.996Z,23.87
2018-11-10T03:10:26.451Z,25.67
2018-11-10T03:12:59.402Z,25.13
2018-11-10T03:15:28.934Z,24.20
2018-11-10T03:17:58.537Z,25.10
2018-11-10T03:20:28.132Z,23.40
2018-11-10T03:23:11.652Z,24.77
2018-11-10T03:25:46.589Z,23.50
2018-11-10T03:28:30.027Z,22.77
2018-11-10T03:31:04.000Z,23.30
2018-11-10T03:33:36.010Z,23.10
2018-11-10T03:36:08.690Z,23.10
2018-11-10T03:38:44.362Z,23.57
2018-11-10T03:41:15.258Z,23.90
2018-11-10T03:43:56.310Z,23.90
2018-11-10T03:46:27.181Z,22.30
2018-11-10T03:48:59.692Z,23.47
2018-11-10T03:51:30.189Z,23.70
2018-11-10T03:54:01.533Z,24.23
2018-11-10T03:56:37.024Z,23.27
2018-11-10T03:59:07.027Z,24.20
2018-11-10T04:01:37.789Z,23.40
2018-11-10T04:04:22.021Z,24.87
2018-11-10T04:06:58.524Z,23.03
2018-11-10T04:09:28.208Z,24.40
2018-11-10T04:11:57.773Z,24.00
2018-11-10T04:14:27.667Z,25.07
2018-11-10T04:17:00.669Z,24.33
2018-11-10T04:19:32.361Z,24.07
2018-11-10T04:22:02.658Z,24.13
2018-11-10T04:24:33.055Z,24.43
2018-11-10T04:27:05.575Z,25.43
2018-11-10T04:29:36.034Z,25.23
2018-11-10T04:32:14.499Z,23.80
2018-11-10T04:35:00.742Z,25.07
2018-11-10T04:37:30.453Z,23.67
2018-11-10T04:40:01.095Z,28.63
2018-11-10T04:47:30.619Z,23.33
2018-11-10T04:50:03.196Z,25.90
2018-11-10T04:52:36.762Z,24.90
2018-11-10T04:55:08.041Z,24.33
2018-11-10T04:57:39.564Z,27.17
2018-11-10T05:00:23.127Z,25.33
2018-11-10T05:02:55.918Z,25.77
2018-11-10T05:05:27.669Z,24.87
2018-11-10T05:07:58.075Z,25.10
2018-11-10T05:10:30.013Z,24.80
2018-11-10T05:13:04.196Z,24.33
2018-11-10T05:15:43.592Z,24.37
2018-11-10T05:18:17.805Z,25.57
2018-11-10T05:20:48.209Z,23.90
2018-11-10T05:23:20.347Z,23.23
2018-11-10T05:26:10.981Z,23.83
2018-11-10T05:28:43.999Z,23.30
2018-11-10T05:31:13.972Z,24.73
2018-11-10T05:33:46.386Z,24.53
2018-11-10T05:36:18.544Z,22.67
2018-11-10T05:38:48.862Z,22.77
2018-11-10T05:41:19.184Z,23.13
2018-11-10T05:45:03.257Z,22.63
2018-11-10T05:47:34.425Z,22.23
2018-11-10T05:50:07.999Z,20.30
2018-11-10T05:52:39.121Z,22.20
2018-11-10T06:19:52.563Z,20.57
2018-11-10T06:22:23.076Z,19.73
2018-11-10T06:24:56.144Z,19.23
2018-11-10T06:27:26.002Z,19.30
2018-11-10T06:33:00.430Z,19.67
2018-11-10T06:35:32.811Z,20.30
2018-11-10T06:38:04.455Z,18.77
2018-11-10T06:40:36.739Z,19.17
2018-11-10T06:43:06.513Z,19.33
2018-11-10T06:45:48.352Z,19.73
2018-11-10T06:48:24.131Z,19.47
2018-11-10T06:50:54.521Z,19.00
2018-11-10T06:53:26.262Z,18.73
2018-11-10T06:55:57.565Z,18.83
2018-11-10T06:59:03.356Z,17.60
2018-11-10T07:01:33.179Z,18.27
2018-11-10T07:04:05.441Z,21.43
2018-11-10T07:06:36.054Z,17.20
2018-11-10T07:09:08.753Z,17.27
2018-11-10T07:11:40.184Z,17.90
2018-11-10T07:14:10.486Z,16.87
2018-11-10T07:16:40.750Z,16.57
2018-11-10T07:19:12.989Z,16.40
2018-11-10T07:21:46.472Z,16.03
2018-11-10T07:24:21.939Z,16.17
2018-11-10T07:26:59.323Z,16.23
2018-11-10T07:29:33.042Z,16.50
2018-11-10T07:32:03.322Z,14.87
2018-11-10T07:34:33.317Z,15.40
2018-11-10T07:37:27.151Z,15.43
2018-11-10T07:40:04.831Z,15.80
2018-11-10T07:42:51.928Z,14.33
2018-11-10T07:45:37.119Z,14.67
2018-11-10T07:51:05.023Z,13.80
2018-11-10T07:53:43.375Z,13.87
2018-11-10T07:56:14.457Z,14.13
2018-11-10T07:58:45.727Z,14.00
2018-11-10T08:01:19.085Z,13.63
2018-11-10T08:03:55.387Z,14.20
2018-11-10T08:06:27.127Z,13.40
2018-11-10T08:09:01.496Z,14.37
2018-11-10T08:11:36.300Z,12.73
2018-11-10T08:14:11.509Z,13.47
2018-11-10T08:16:41.063Z,12.27
2018-11-10T08:19:10.786Z,12.97
2018-11-10T08:21:41.806Z,13.13
2018-11-10T08:24:12.397Z,13.03
2018-11-10T08:26:44.257Z,12.60
2018-11-10T08:29:15.322Z,11.97
2018-11-10T08:31:46.006Z,13.27
2018-11-10T08:34:23.423Z,13.03
2018-11-10T08:36:53.315Z,12.53
2018-11-10T08:39:23.837Z,13.30
2018-11-10T08:41:55.722Z,13.10
2018-11-10T08:44:58.100Z,12.40
2018-11-10T08:47:41.722Z,13.40
2018-11-10T08:50:15.202Z,13.23
2018-11-10T08:52:46.461Z,11.60
2018-11-10T08:55:17.113Z,13.47
2018-11-10T08:57:49.383Z,11.33
2018-11-10T09:00:19.414Z,13.23
2018-11-10T09:02:50.516Z,12.77
2018-11-10T09:05:32.677Z,12.10
2018-11-10T09:08:04.840Z,12.00
2018-11-10T09:10:40.954Z,12.27
2018-11-10T09:13:12.999Z,11.97
2018-11-10T09:15:43.674Z,11.93
2018-11-10T09:18:15.719Z,12.10
2018-11-10T09:20:47.674Z,10.80
2018-11-10T09:23:18.707Z,11.17
2018-11-10T09:25:48.419Z,11.10
2018-11-10T09:28:19.241Z,10.57
2018-11-10T09:30:53.921Z,11.90
2018-11-10T09:33:24.654Z,10.70
2018-11-10T09:35:56.904Z,11.23
2018-11-10T09:41:10.811Z,10.30
2018-11-10T09:43:43.077Z,10.70
2018-11-10T09:46:17.483Z,10.77
2018-11-10T09:48:57.785Z,10.17
2018-11-10T09:51:31.528Z,10.73
2018-11-10T09:54:04.838Z,10.77
2018-11-10T10:01:36.088Z,10.83
2018-11-10T10:04:08.998Z,11.87
2018-11-10T10:06:41.700Z,12.00
2018-11-10T10:09:13.084Z,11.00
2018-11-10T10:11:43.660Z,11.60
2018-11-10T10:14:20.320Z,12.90
2018-11-10T10:16:51.488Z,12.80
2018-11-10T10:19:30.094Z,13.60
2018-11-10T10:22:04.780Z,13.30
2018-11-10T10:24:39.790Z,12.70
2018-11-10T10:27:12.364Z,12.77
2018-11-10T10:29:48.914Z,13.33
2018-11-10T10:32:26.664Z,13.00
2018-11-10T10:34:57.915Z,14.53
2018-11-10T10:37:31.919Z,12.97
2018-11-10T10:40:12.764Z,13.90
2018-11-10T10:42:47.028Z,14.07
2018-11-10T10:45:24.093Z,14.33
2018-11-10T10:51:34.407Z,15.53
2018-11-10T10:54:26.441Z,13.87
2018-11-10T10:57:09.428Z,13.53
2018-11-10T10:59:43.500Z,13.73
2018-11-10T11:02:26.417Z,14.93
2018-11-10T11:05:12.332Z,13.57
2018-11-10T11:07:47.281Z,12.97
2018-11-10T11:10:28.939Z,14.23
2018-11-10T11:13:07.271Z,14.07
2018-11-10T11:15:41.118Z,13.70
2018-11-10T11:18:11.591Z,13.53
2018-11-10T11:20:51.334Z,14.07
2018-11-10T11:23:23.977Z,13.33
2018-11-10T11:29:08.152Z,13.63
2018-11-10T11:34:30.259Z,15.57
2018-11-10T11:37:05.660Z,24.87
2018-11-10T11:39:48.371Z,20.37
2018-11-10T11:42:30.601Z,22.53
2018-11-10T11:45:07.815Z,15.50
2018-11-10T11:47:40.635Z,15.00
2018-11-10T11:50:18.072Z,14.87
2018-11-10T11:52:58.729Z,13.70
2018-11-10T11:55:43.560Z,15.53
2018-11-10T11:58:26.202Z,15.47
2018-11-10T12:01:19.019Z,15.23
2018-11-10T12:03:54.710Z,14.63
2018-11-10T12:06:46.933Z,15.33
2018-11-10T12:09:32.921Z,15.97
2018-11-10T12:12:23.552Z,15.57
2018-11-10T12:15:07.955Z,14.90
2018-11-10T12:17:55.294Z,14.10
2018-11-10T12:20:35.735Z,13.63
2018-11-10T12:23:08.324Z,14.30
2018-11-10T12:25:42.256Z,13.63
2018-11-10T12:28:40.294Z,14.20
2018-11-10T12:31:18.018Z,14.00
2018-11-10T12:33:49.747Z,14.53
2018-11-10T12:36:32.424Z,14.13
2018-11-10T12:39:10.159Z,14.73
2018-11-10T12:41:51.066Z,13.10
2018-11-10T12:44:45.526Z,15.27
2018-11-10T12:49:57.951Z,13.83
2018-11-10T12:52:28.505Z,14.77
2018-11-10T12:55:01.641Z,16.03
2018-11-10T12:57:43.184Z,16.00
2018-11-10T13:00:35.258Z,15.03
2018-11-10T13:03:07.018Z,18.57
2018-11-10T13:05:41.340Z,17.50
2018-11-10T13:08:14.933Z,15.13
2018-11-10T13:10:54.366Z,14.77
2018-11-10T13:13:26.281Z,14.13
2018-11-10T13:16:00.201Z,16.77
2018-11-10T13:18:34.216Z,15.07
2018-11-10T13:21:14.437Z,14.53
2018-11-10T13:23:49.341Z,14.93
2018-11-10T13:26:23.427Z,14.63
2018-11-10T13:29:15.021Z,14.30
2018-11-10T13:31:48.671Z,15.70
2018-11-10T13:34:22.791Z,13.53
2018-11-10T13:36:53.878Z,14.30
2018-11-10T13:39:23.677Z,13.50
2018-11-10T13:41:56.676Z,14.07
2018-11-10T13:47:12.473Z,13.53
2018-11-10T13:49:44.777Z,13.50
2018-11-10T13:52:18.405Z,14.10
2018-11-10T13:54:49.880Z,13.17
2018-11-10T13:57:21.290Z,14.70
2018-11-10T14:00:49.441Z,13.30
2018-11-10T14:06:37.115Z,13.80
2018-11-10T14:09:11.523Z,12.97
2018-11-10T14:11:43.710Z,13.23
2018-11-10T14:14:24.680Z,12.63
2018-11-10T14:16:59.542Z,12.13
2018-11-10T14:19:59.570Z,11.50
2018-11-10T14:25:53.102Z,11.83
2018-11-10T14:28:37.058Z,12.20
2018-11-10T14:31:10.639Z,11.87
2018-11-10T14:36:58.530Z,11.97
2018-11-10T14:39:33.876Z,11.80
2018-11-10T14:42:15.021Z,13.50
2018-11-10T14:45:29.880Z,12.43
2018-11-10T14:48:12.408Z,12.93
2018-11-10T14:53:32.607Z,13.07
2018-11-10T14:56:07.536Z,12.47
2018-11-10T14:58:48.520Z,11.93
2018-11-10T15:01:23.760Z,13.30
2018-11-10T15:03:56.402Z,12.80
2018-11-10T15:06:26.362Z,12.57
2018-11-10T15:08:57.514Z,12.60
2018-11-10T15:11:33.137Z,11.70
2018-11-10T15:14:04.651Z,13.17
2018-11-10T15:16:38.249Z,13.87
2018-11-10T15:19:20.992Z,14.60
2018-11-10T15:21:52.324Z,13.77
2018-11-10T15:24:25.350Z,13.03
2018-11-10T15:26:57.709Z,13.63
2018-11-10T15:29:27.147Z,14.10
2018-11-10T15:31:56.690Z,13.40
2018-11-10T15:34:28.483Z,13.23
2018-11-10T15:37:01.547Z,13.07
2018-11-10T15:39:33.184Z,12.93
2018-11-10T15:42:03.115Z,14.03
2018-11-10T15:44:37.005Z,13.13
2018-11-10T15:47:07.914Z,13.13
2018-11-10T15:49:48.529Z,14.40
2018-11-10T15:52:24.192Z,13.80
2018-11-10T15:55:06.427Z,14.80
2018-11-10T15:57:39.053Z,14.53
2018-11-10T16:00:23.994Z,14.20
2018-11-10T16:03:11.892Z,14.73
2018-11-10T16:05:46.347Z,15.73
2018-11-10T16:08:18.264Z,14.47
2018-11-10T16:11:01.279Z,14.90
2018-11-10T16:13:32.137Z,14.23
2018-11-10T16:16:18.637Z,13.77
2018-11-10T16:18:59.558Z,15.40
2018-11-10T16:21:35.303Z,15.20
2018-11-10T16:24:11.765Z,16.43
2018-11-10T16:26:44.114Z,15.87
2018-11-10T16:29:15.222Z,16.63
2018-11-10T16:31:48.912Z,17.73
2018-11-10T16:34:30.110Z,16.27
2018-11-10T16:37:00.663Z,15.20
2018-11-10T16:39:35.674Z,16.33
2018-11-10T16:42:15.945Z,15.73
2018-11-10T16:44:49.821Z,15.17
2018-11-10T16:47:26.641Z,15.67
2018-11-10T16:50:04.012Z,14.30
2018-11-10T16:52:44.374Z,14.00
2018-11-10T16:55:22.362Z,15.73
2018-11-10T16:57:58.868Z,14.87
2018-11-10T17:00:30.762Z,14.30
2018-11-10T17:03:19.481Z,16.57
2018-11-10T17:06:02.308Z,14.60
2018-11-10T17:08:41.494Z,14.80
2018-11-10T17:11:16.172Z,15.03
2018-11-10T17:14:05.590Z,14.43
2018-11-10T17:16:49.580Z,14.83
2018-11-10T17:19:20.597Z,15.83
2018-11-10T17:21:56.940Z,15.63
2018-11-10T17:24:27.537Z,16.30
2018-11-10T17:26:59.271Z,16.53
2018-11-10T17:32:42.921Z,17.47
2018-11-10T17:35:21.044Z,17.20
2018-11-10T17:37:50.761Z,18.17
2018-11-10T17:40:21.220Z,17.47
2018-11-10T17:42:53.394Z,17.33
2018-11-10T17:45:23.356Z,17.90
2018-11-10T17:47:56.297Z,16.77
2018-11-10T17:50:26.754Z,16.90
2018-11-10T17:52:59.020Z,16.40
2018-11-10T17:55:32.660Z,17.13
2018-11-10T17:58:08.799Z,16.63
2018-11-10T18:00:45.876Z,16.63
2018-11-10T18:03:22.056Z,17.50
2018-11-10T18:05:59.749Z,15.33
2018-11-10T18:08:45.617Z,16.47
2018-11-10T18:16:28.656Z,15.20
2018-11-10T18:18:58.801Z,15.30
2018-11-10T18:21:42.236Z,17.87
2018-11-10T18:24:16.867Z,17.17
2018-11-10T18:26:49.627Z,16.17
2018-11-10T18:29:22.748Z,15.33
2018-11-10T18:31:58.233Z,14.57
2018-11-10T18:34:33.016Z,16.30
2018-11-10T18:37:07.216Z,16.10
2018-11-10T18:39:41.186Z,15.20
2018-11-10T18:42:15.372Z,15.33
2018-11-10T18:44:50.906Z,16.27
2018-11-10T18:47:25.002Z,15.97
2018-11-10T18:49:55.831Z,18.67
2018-11-10T18:52:32.005Z,20.37
2018-11-10T18:55:04.374Z,17.43
2018-11-10T18:57:52.254Z,16.13
2018-11-10T19:00:23.546Z,15.30
2018-11-10T19:02:54.177Z,15.93
2018-11-10T19:05:29.257Z,15.93
2018-11-10T19:08:09.067Z,14.63
2018-11-10T19:10:39.009Z,17.80
2018-11-10T19:13:12.050Z,17.40
2018-11-10T19:18:54.307Z,14.80
2018-11-10T19:24:55.883Z,16.77
2018-11-10T19:27:29.696Z,16.03
2018-11-10T19:30:32.919Z,19.67
2018-11-10T19:36:34.786Z,17.67
2018-11-10T19:39:54.161Z,18.27
2018-11-10T19:45:29.149Z,16.87
2018-11-10T19:48:17.870Z,16.47
2018-11-10T19:53:33.096Z,15.00
2018-11-10T19:56:29.766Z,16.43
2018-11-10T19:59:12.082Z,20.63
2018-11-10T20:01:57.340Z,18.47
2018-11-10T20:04:36.236Z,16.07
2018-11-10T20:07:22.724Z,16.10
2018-11-10T20:09:55.428Z,16.47
2018-11-10T20:12:45.072Z,16.77
2018-11-10T20:15:19.552Z,17.03
2018-11-10T20:18:02.671Z,16.23
2018-11-10T20:20:33.713Z,16.47
2018-11-10T20:23:04.805Z,15.33
2018-11-10T20:25:34.742Z,17.90
2018-11-10T20:28:06.564Z,17.27
2018-11-10T20:30:38.389Z,19.87
2018-11-10T20:33:12.747Z,19.13
2018-11-10T20:38:36.996Z,17.70
2018-11-10T20:41:27.579Z,17.90
2018-11-10T20:44:00.017Z,15.80
2018-11-10T20:46:33.369Z,16.67
2018-11-10T20:49:04.076Z,17.37
2018-11-10T20:51:34.887Z,16.57
2018-11-10T20:54:06.785Z,17.23
2018-11-10T20:56:37.714Z,15.60
2018-11-10T20:59:22.987Z,17.00
2018-11-10T21:01:54.814Z,17.20
2018-11-10T21:04:24.224Z,16.43
2018-11-10T21:06:55.033Z,17.73
2018-11-10T21:09:27.259Z,16.77
2018-11-10T21:11:58.459Z,16.77
2018-11-10T21:14:30.435Z,16.27
2018-11-10T21:17:01.767Z,17.27
2018-11-10T21:19:34.145Z,21.20
2018-11-10T21:22:05.551Z,18.40
2018-11-10T21:24:35.562Z,16.60
2018-11-10T21:27:09.802Z,16.67
2018-11-10T21:29:40.565Z,17.47
2018-11-10T21:32:11.115Z,16.23
2018-11-10T21:34:41.802Z,18.83
2018-11-10T21:37:11.872Z,16.80
2018-11-10T21:39:47.751Z,21.57
2018-11-10T21:42:18.628Z,20.90
2018-11-10T21:44:50.265Z,18.10
2018-11-10T21:47:19.950Z,17.03
2018-11-10T21:49:49.416Z,16.87
2018-11-10T21:52:20.606Z,16.67
2018-11-10T21:54:52.370Z,16.77
2018-11-10T21:57:24.098Z,17.37
2018-11-10T21:59:59.532Z,16.43
2018-11-10T22:02:29.084Z,16.40
2018-11-10T22:05:01.096Z,16.50
2018-11-10T22:07:30.581Z,16.87
2018-11-10T22:10:03.772Z,15.70
2018-11-10T22:12:41.673Z,16.40
2018-11-10T22:15:21.686Z,16.57
2018-11-10T22:17:52.916Z,17.13
2018-11-10T22:20:23.885Z,16.10
2018-11-10T22:22:53.576Z,16.20
2018-11-10T22:25:25.907Z,16.10
2018-11-10T22:27:57.583Z,16.93
2018-11-10T22:30:28.276Z,17.10
2018-11-10T22:32:58.912Z,15.77
2018-11-10T22:35:34.209Z,16.23
2018-11-10T22:38:04.057Z,16.57
2018-11-10T22:40:36.502Z,15.50
2018-11-10T22:43:06.450Z,16.17
2018-11-10T22:45:38.890Z,15.77
2018-11-10T22:48:25.016Z,16.33
2018-11-10T22:50:54.605Z,17.20
2018-11-10T22:53:40.346Z,14.93
2018-11-10T22:56:10.823Z,17.23
2018-11-10T22:58:41.665Z,16.27
2018-11-10T23:03:59.107Z,16.67
2018-11-10T23:06:33.447Z,17.87
2018-11-10T23:09:07.114Z,16.63
2018-11-10T23:11:37.188Z,15.77
2018-11-10T23:14:08.093Z,16.17
2018-11-10T23:16:38.536Z,16.73
2018-11-10T23:19:10.927Z,16.50
2018-11-10T23:21:40.514Z,16.60
2018-11-10T23:24:10.070Z,17.03
2018-11-10T23:26:44.762Z,17.10
2018-11-10T23:29:22.570Z,17.77
2018-11-10T23:34:34.253Z,20.30
2018-11-10T23:37:07.338Z,17.47
2018-11-10T23:39:37.539Z,17.00
2018-11-10T23:42:12.700Z,17.63
2018-11-10T23:44:43.233Z,17.87
2018-11-10T23:47:14.495Z,17.63
2018-11-10T23:49:46.007Z,18.13
2018-11-10T23:52:16.081Z,17.23
2018-11-10T23:54:46.105Z,16.33
2018-11-10T23:57:21.195Z,17.27
2018-11-10T23:59:52.008Z,20.07
